Terminal Aerodrome Forecast
Issued by NWS

Home | Current Version | Previous Version | Text Only | Print | Product List | Glossary Off
Versions: 1 2 3 4 5 6 7 8 9 10 11 12 13 14 15 16 17 18 19 20 21 22 23

000
FTUS43 KGRB 201300 AAA
TAFAUW
TAF AMD
KAUW 201338Z 2014/2112 23011KT P6SM BKN015
     FM201600 26009G15KT P6SM BKN020
     FM201800 27011G18KT P6SM SCT025 SCT100
     FM202300 24003KT P6SM SCT035 BKN250
     FM210300 28003KT 5SM -SHRA BR SCT006 OVC010
      TEMPO 2105/2109 2SM SHRA BR OVC006
     FM210900 32007KT P6SM BKN015=

USA.gov is the U.S. government's official web portal to all federal, state and local government web resources and services.